createdAt,value
2018-08-17T00:00:56.979Z,22.20
2018-08-17T00:03:25.894Z,22.20
2018-08-17T00:05:54.675Z,21.40
2018-08-17T00:08:23.391Z,22.20
2018-08-17T00:10:52.094Z,22.20
2018-08-17T00:13:20.817Z,22.20
2018-08-17T00:15:49.701Z,21.30
2018-08-17T00:18:18.437Z,20.30
2018-08-17T00:20:47.354Z,22.20
2018-08-17T00:23:16.234Z,22.10
2018-08-17T00:25:45.118Z,21.90
2018-08-17T00:28:13.943Z,22.10
2018-08-17T00:30:42.862Z,22.00
2018-08-17T00:33:11.629Z,22.60
2018-08-17T00:35:42.385Z,21.90
2018-08-17T00:38:11.290Z,21.90
2018-08-17T00:40:40.024Z,21.90
2018-08-17T00:43:08.661Z,21.50
2018-08-17T00:45:37.429Z,21.80
2018-08-17T00:48:06.453Z,21.80
2018-08-17T00:50:35.397Z,21.80
2018-08-17T00:53:04.098Z,21.90
2018-08-17T00:55:32.818Z,21.80
2018-08-17T00:58:01.433Z,21.80
2018-08-17T01:00:30.146Z,21.80
2018-08-17T01:02:58.838Z,21.80
2018-08-17T01:05:27.510Z,21.80
2018-08-17T01:07:56.179Z,21.70
2018-08-17T01:10:25.015Z,21.70
2018-08-17T01:12:53.707Z,21.70
2018-08-17T01:15:22.387Z,21.60
2018-08-17T01:17:51.174Z,21.70
2018-08-17T01:20:20.011Z,21.70
2018-08-17T01:22:48.688Z,21.70
2018-08-17T01:25:17.285Z,21.70
2018-08-17T01:27:45.858Z,21.60
2018-08-17T01:30:14.968Z,21.60
2018-08-17T01:32:43.944Z,21.60
2018-08-17T01:35:12.743Z,21.50
2018-08-17T01:37:41.491Z,21.50
2018-08-17T01:40:10.217Z,21.60
2018-08-17T01:42:39.068Z,21.60
2018-08-17T01:45:07.824Z,21.50
2018-08-17T01:47:36.547Z,21.40
2018-08-17T01:50:07.063Z,21.30
2018-08-17T01:52:35.635Z,21.20
2018-08-17T01:55:07.475Z,21.20
2018-08-17T01:57:36.517Z,21.20
2018-08-17T02:00:07.535Z,21.10
2018-08-17T02:02:38.159Z,21.10
2018-08-17T02:05:07.350Z,21.10
2018-08-17T02:07:36.539Z,21.00
2018-08-17T02:10:06.909Z,21.00
2018-08-17T02:12:35.556Z,21.10
2018-08-17T02:15:04.738Z,21.20
2018-08-17T02:17:33.533Z,21.20
2018-08-17T02:20:02.186Z,21.20
2018-08-17T02:22:30.866Z,21.20
2018-08-17T02:24:59.671Z,21.10
2018-08-17T02:27:28.370Z,21.00
2018-08-17T02:29:59.254Z,20.90
2018-08-17T02:32:28.080Z,20.90
2018-08-17T02:34:57.050Z,20.90
2018-08-17T02:37:26.077Z,20.80
2018-08-17T02:39:54.867Z,20.70
2018-08-17T02:42:23.699Z,20.60
2018-08-17T02:44:52.610Z,20.60
2018-08-17T02:47:21.521Z,20.60
2018-08-17T02:49:51.624Z,20.60
2018-08-17T02:52:20.330Z,20.50
2018-08-17T02:54:49.095Z,20.50
2018-08-17T02:57:18.001Z,20.40
2018-08-17T02:59:46.849Z,19.80
2018-08-17T03:02:15.497Z,20.20
2018-08-17T03:04:44.134Z,20.10
2018-08-17T03:07:12.843Z,20.20
2018-08-17T03:09:41.586Z,20.10
2018-08-17T03:12:12.438Z,20.10
2018-08-17T03:14:41.096Z,20.10
2018-08-17T03:17:09.911Z,20.00
2018-08-17T03:19:38.858Z,20.00
2018-08-17T03:22:07.782Z,20.10
2018-08-17T03:24:36.486Z,20.10
2018-08-17T03:27:05.469Z,20.10
2018-08-17T03:29:34.187Z,20.20
2018-08-17T03:32:03.086Z,21.00
2018-08-17T03:34:33.831Z,20.10
2018-08-17T03:37:02.628Z,20.20
2018-08-17T03:39:31.494Z,20.10
2018-08-17T03:42:00.310Z,20.20
2018-08-17T03:44:30.400Z,18.60
2018-08-17T03:46:59.104Z,20.00
2018-08-17T03:49:27.996Z,19.90
2018-08-17T03:51:56.765Z,19.50
2018-08-17T03:54:25.520Z,19.50
2018-08-17T03:56:54.284Z,19.50
2018-08-17T03:59:23.185Z,19.40
2018-08-17T04:01:52.049Z,19.50
2018-08-17T04:04:20.720Z,19.50
2018-08-17T04:06:49.386Z,19.60
2018-08-17T04:09:18.077Z,19.60
2018-08-17T04:11:46.761Z,19.60
2018-08-17T04:14:16.752Z,19.60
2018-08-17T04:16:45.449Z,19.50
2018-08-17T04:19:14.315Z,19.50
2018-08-17T04:21:43.397Z,19.50
2018-08-17T04:24:12.102Z,19.50
2018-08-17T04:26:40.881Z,18.30
2018-08-17T04:29:09.648Z,19.40
2018-08-17T04:31:38.616Z,18.60
2018-08-17T04:34:10.753Z,19.40
2018-08-17T04:36:39.638Z,19.40
2018-08-17T04:39:08.355Z,19.40
2018-08-17T04:41:38.130Z,19.50
2018-08-17T04:44:06.866Z,19.60
2018-08-17T04:46:35.522Z,19.60
2018-08-17T04:49:04.259Z,19.60
2018-08-17T04:53:02.806Z,17.90
2018-08-17T04:55:31.574Z,19.40
2018-08-17T04:58:00.253Z,19.40
2018-08-17T05:00:28.939Z,19.50
2018-08-17T05:02:57.609Z,19.50
2018-08-17T05:05:26.263Z,18.90
2018-08-17T05:07:57.183Z,19.70
2018-08-17T05:10:25.979Z,19.80
2018-08-17T05:12:54.621Z,19.80
2018-08-17T05:15:23.290Z,19.80
2018-08-17T05:17:51.989Z,19.80
2018-08-17T05:20:20.750Z,19.10
2018-08-17T05:22:49.666Z,21.20
2018-08-17T05:25:18.429Z,19.90
2018-08-17T05:27:47.091Z,19.80
2018-08-17T05:30:18.042Z,19.80
2018-08-17T05:32:47.989Z,19.80
2018-08-17T05:35:16.881Z,19.70
2018-08-17T05:37:45.733Z,19.70
2018-08-17T05:40:14.451Z,19.80
2018-08-17T05:42:43.115Z,19.80
2018-08-17T05:45:44.399Z,19.80
2018-08-17T05:48:13.080Z,19.90
2018-08-17T05:50:42.417Z,20.00
2018-08-17T05:53:11.086Z,20.10
2018-08-17T05:55:39.837Z,20.10
2018-08-17T05:58:08.530Z,20.20
2018-08-17T06:00:37.204Z,20.30
2018-08-17T06:03:07.307Z,20.30
2018-08-17T06:05:36.216Z,20.30
2018-08-17T06:08:07.165Z,20.30
2018-08-17T06:10:35.867Z,20.40
2018-08-17T06:13:04.761Z,20.50
2018-08-17T06:15:33.467Z,20.50
2018-08-17T06:18:05.214Z,20.50
2018-08-17T06:20:33.879Z,20.60
2018-08-17T06:23:02.616Z,20.60
2018-08-17T06:25:31.385Z,20.70
2018-08-17T06:28:00.258Z,20.70
2018-08-17T06:30:28.913Z,20.70
2018-08-17T06:32:59.517Z,20.70
2018-08-17T06:35:28.272Z,20.80
2018-08-17T06:37:56.934Z,20.90
2018-08-17T06:40:25.724Z,20.90
2018-08-17T06:42:54.412Z,21.00
2018-08-17T06:45:23.698Z,21.20
2018-08-17T06:47:52.369Z,21.30
2018-08-17T06:50:21.203Z,21.40
2018-08-17T06:52:50.060Z,21.50
2018-08-17T06:55:18.938Z,21.50
2018-08-17T06:57:47.827Z,21.60
2018-08-17T07:00:17.014Z,21.60
2018-08-17T07:02:46.787Z,21.50
2018-08-17T07:05:15.744Z,21.40
2018-08-17T07:07:44.508Z,21.60
2018-08-17T07:10:14.166Z,21.70
2018-08-17T07:12:43.333Z,21.90
2018-08-17T07:15:12.462Z,22.00
2018-08-17T07:17:41.760Z,22.10
2018-08-17T07:20:12.742Z,22.00
2018-08-17T07:22:44.054Z,22.00
2018-08-17T07:25:17.482Z,22.00
2018-08-17T07:27:50.869Z,22.00
2018-08-17T07:30:25.298Z,20.70
2018-08-17T07:33:00.964Z,22.10
2018-08-17T07:35:30.004Z,21.80
2018-08-17T07:37:58.798Z,22.30
2018-08-17T07:40:27.468Z,22.50
2018-08-17T07:42:57.244Z,22.60
2018-08-17T07:45:27.448Z,22.80
2018-08-17T07:47:56.184Z,23.00
2018-08-17T07:50:26.233Z,23.10
2018-08-17T07:52:57.694Z,23.30
2018-08-17T07:55:26.819Z,23.40
2018-08-17T07:57:55.466Z,22.80
2018-08-17T08:00:24.296Z,23.30
2018-08-17T08:02:53.243Z,23.50
2018-08-17T08:05:21.972Z,23.70
2018-08-17T08:07:50.739Z,23.90
2018-08-17T08:10:19.458Z,23.00
2018-08-17T08:12:49.933Z,23.90
2018-08-17T08:15:18.629Z,23.90
2018-08-17T08:17:47.338Z,24.20
2018-08-17T08:20:28.455Z,24.40
2018-08-17T08:23:08.615Z,24.60
2018-08-17T08:25:37.318Z,25.00
2018-08-17T08:28:06.148Z,24.80
2018-08-17T08:30:35.023Z,25.00
2018-08-17T08:33:04.033Z,25.20
2018-08-17T08:35:32.718Z,25.30
2018-08-17T08:38:01.625Z,25.40
2018-08-17T08:40:30.489Z,25.40
2018-08-17T08:42:59.219Z,25.20
2018-08-17T08:45:27.963Z,25.20
2018-08-17T08:47:56.684Z,25.50
2018-08-17T08:50:25.361Z,25.70
2018-08-17T08:52:54.113Z,25.80
2018-08-17T08:55:22.818Z,25.80
2018-08-17T08:57:51.455Z,25.80
2018-08-17T09:00:20.199Z,25.90
2018-08-17T09:02:52.051Z,25.90
2018-08-17T09:05:20.725Z,25.80
2018-08-17T09:07:49.474Z,25.90
2018-08-17T09:10:18.253Z,26.10
2018-08-17T09:12:46.938Z,26.10
2018-08-17T09:15:15.731Z,26.00
2018-08-17T09:17:44.662Z,25.80
2018-08-17T09:20:15.465Z,25.70
2018-08-17T09:22:44.462Z,25.60
2018-08-17T09:25:13.506Z,25.80
2018-08-17T09:27:42.351Z,26.00
2018-08-17T09:30:12.853Z,26.10
2018-08-17T09:32:41.864Z,26.80
2018-08-17T09:35:12.026Z,26.40
2018-08-17T09:37:40.731Z,26.40
2018-08-17T09:40:10.322Z,26.40
2018-08-17T09:42:39.053Z,26.80
2018-08-17T09:45:10.402Z,27.00
2018-08-17T09:47:46.514Z,26.90
2018-08-17T09:50:23.228Z,25.60
2018-08-17T09:52:52.124Z,27.00
2018-08-17T09:55:21.040Z,27.00
2018-08-17T09:57:49.716Z,27.10
2018-08-17T10:00:18.451Z,27.10
2018-08-17T10:02:52.339Z,26.80
2018-08-17T10:05:26.162Z,26.30
2018-08-17T10:08:00.187Z,27.30
2018-08-17T10:10:28.874Z,27.40
2018-08-17T10:12:57.634Z,27.40
2018-08-17T10:15:26.529Z,27.70
2018-08-17T10:17:55.154Z,28.00
2018-08-17T10:20:24.790Z,28.20
2018-08-17T10:22:53.530Z,28.10
2018-08-17T10:25:23.463Z,27.60
2018-08-17T10:27:53.426Z,29.30
2018-08-17T10:30:22.746Z,29.40
2018-08-17T10:32:56.745Z,29.80
2018-08-17T10:35:26.862Z,30.30
2018-08-17T10:37:56.863Z,31.70
2018-08-17T10:40:26.053Z,32.30
2018-08-17T10:42:54.902Z,32.90
2018-08-17T10:45:24.485Z,32.80
2018-08-17T10:47:53.599Z,33.50
2018-08-17T10:50:23.611Z,34.80
2018-08-17T10:52:53.454Z,35.20
2018-08-17T10:55:23.521Z,34.10
2018-08-17T10:57:52.298Z,32.60
2018-08-17T11:00:22.250Z,32.70
2018-08-17T11:02:51.151Z,33.80
2018-08-17T11:05:20.835Z,32.70
2018-08-17T11:07:49.739Z,30.40
2018-08-17T11:10:18.503Z,31.60
2018-08-17T11:12:47.798Z,33.40
2018-08-17T11:15:16.554Z,34.60
2018-08-17T11:17:45.947Z,34.40
2018-08-17T11:20:19.545Z,35.50
2018-08-17T11:22:48.232Z,36.10
2018-08-17T11:25:17.059Z,33.00
2018-08-17T11:27:45.944Z,34.30
2018-08-17T11:30:15.300Z,35.00
2018-08-17T11:32:44.056Z,35.70
2018-08-17T11:35:12.842Z,36.10
2018-08-17T11:37:41.693Z,36.40
2018-08-17T11:40:15.474Z,35.50
2018-08-17T11:42:49.099Z,35.70
2018-08-17T11:45:21.744Z,36.80
2018-08-17T11:47:50.861Z,37.50
2018-08-17T11:50:22.329Z,35.80
2018-08-17T11:52:56.328Z,37.10
2018-08-17T11:55:26.155Z,36.00
2018-08-17T11:57:55.023Z,37.20
2018-08-17T12:00:24.139Z,37.60
2018-08-17T12:02:52.961Z,38.00
2018-08-17T12:05:21.892Z,35.90
2018-08-17T12:07:50.921Z,34.30
2018-08-17T12:10:20.055Z,34.60
2018-08-17T12:12:48.346Z,34.00
2018-08-17T12:15:17.147Z,33.70
2018-08-17T12:17:45.825Z,35.30
2018-08-17T12:20:14.598Z,37.60
2018-08-17T12:22:43.409Z,36.90
2018-08-17T12:25:12.173Z,37.30
2018-08-17T12:27:46.827Z,37.40
2018-08-17T12:30:15.609Z,36.50
2018-08-17T12:32:44.326Z,37.20
2018-08-17T12:35:13.067Z,37.30
2018-08-17T12:37:42.328Z,37.90
2018-08-17T12:40:11.443Z,38.20
2018-08-17T12:42:40.153Z,38.50
2018-08-17T12:45:15.214Z,38.20
2018-08-17T12:47:44.152Z,38.50
2018-08-17T12:50:12.788Z,38.80
2018-08-17T12:52:41.550Z,38.70
2018-08-17T12:55:10.274Z,38.60
2018-08-17T12:57:40.851Z,37.80
2018-08-17T13:00:09.863Z,37.20
2018-08-17T13:02:38.567Z,37.20
2018-08-17T13:05:07.356Z,37.60
2018-08-17T13:07:36.660Z,38.00
2018-08-17T13:10:06.666Z,37.80
2018-08-17T13:12:35.411Z,38.00
2018-08-17T13:15:04.487Z,38.20
2018-08-17T13:19:02.926Z,38.70
2018-08-17T13:21:31.569Z,38.60
2018-08-17T13:24:00.334Z,38.50
2018-08-17T13:26:29.043Z,38.90
2018-08-17T13:28:57.678Z,39.40
2018-08-17T13:31:26.319Z,39.50
2018-08-17T13:33:55.058Z,39.30
2018-08-17T13:36:29.963Z,38.90
2018-08-17T13:39:02.610Z,39.10
2018-08-17T13:41:31.511Z,39.30
2018-08-17T13:44:00.226Z,39.20
2018-08-17T13:46:29.039Z,39.40
2018-08-17T13:48:57.717Z,39.80
2018-08-17T13:51:26.452Z,39.50
2018-08-17T13:53:55.292Z,39.70
2018-08-17T13:56:24.143Z,39.60
2018-08-17T13:58:52.912Z,39.40
2018-08-17T14:01:21.702Z,39.00
2018-08-17T14:03:50.391Z,36.90
2018-08-17T14:06:19.061Z,35.50
2018-08-17T14:08:47.715Z,36.60
2018-08-17T14:11:16.509Z,37.70
2018-08-17T14:13:46.008Z,38.30
2018-08-17T14:16:19.630Z,38.60
2018-08-17T14:18:58.309Z,38.90
2018-08-17T14:21:35.596Z,38.80
2018-08-17T14:24:04.886Z,39.30
2018-08-17T14:26:33.669Z,39.50
2018-08-17T14:29:02.371Z,39.30
2018-08-17T14:31:31.048Z,39.20
2018-08-17T14:33:59.728Z,39.50
2018-08-17T14:36:28.449Z,39.50
2018-08-17T14:38:57.409Z,39.40
2018-08-17T14:41:26.064Z,39.00
2018-08-17T14:43:54.764Z,39.50
2018-08-17T14:46:23.581Z,39.40
2018-08-17T14:48:52.280Z,39.40
2018-08-17T14:51:20.994Z,38.80
2018-08-17T14:53:49.856Z,38.20
2018-08-17T14:56:18.505Z,36.70
2018-08-17T14:58:47.334Z,35.40
2018-08-17T15:01:16.367Z,34.50
2018-08-17T15:03:45.423Z,32.70
2018-08-17T15:06:14.198Z,33.40
2018-08-17T15:08:45.834Z,33.20
2018-08-17T15:11:14.649Z,32.90
2018-08-17T15:13:43.363Z,32.70
2018-08-17T15:16:12.167Z,32.70
2018-08-17T15:18:40.968Z,32.70
2018-08-17T15:21:10.030Z,32.80
2018-08-17T15:23:38.767Z,32.70
2018-08-17T15:26:09.179Z,32.20
2018-08-17T15:28:38.184Z,32.20
2018-08-17T15:31:08.847Z,32.30
2018-08-17T15:33:37.556Z,32.30
2018-08-17T15:36:06.306Z,32.40
2018-08-17T15:38:35.175Z,32.40
2018-08-17T15:41:03.825Z,32.10
2018-08-17T15:43:33.564Z,32.00
2018-08-17T15:46:02.225Z,32.10
2018-08-17T15:48:38.944Z,32.10
2018-08-17T15:51:10.465Z,32.10
2018-08-17T15:53:39.886Z,31.90
2018-08-17T15:56:09.005Z,31.80
2018-08-17T15:58:37.699Z,31.80
2018-08-17T16:01:08.366Z,31.60
2018-08-17T16:03:39.239Z,31.60
2018-08-17T16:06:09.167Z,31.60
2018-08-17T16:08:37.881Z,31.60
2018-08-17T16:11:07.022Z,31.70
2018-08-17T16:13:35.822Z,31.60
2018-08-17T16:16:04.800Z,31.30
2018-08-17T16:18:33.548Z,31.50
2018-08-17T16:22:32.640Z,31.50
2018-08-17T16:25:01.534Z,31.50
2018-08-17T16:27:30.580Z,31.30
2018-08-17T16:29:59.432Z,31.20
2018-08-17T16:32:28.182Z,31.20
2018-08-17T16:34:56.982Z,31.20
2018-08-17T16:37:25.673Z,31.20
2018-08-17T16:39:55.373Z,31.00
2018-08-17T16:42:33.505Z,30.90
2018-08-17T16:45:02.300Z,31.00
2018-08-17T16:47:31.101Z,30.90
2018-08-17T16:49:59.971Z,30.80
2018-08-17T16:52:28.748Z,30.80
2018-08-17T16:55:00.718Z,30.60
2018-08-17T16:57:29.470Z,30.60
2018-08-17T16:59:58.296Z,30.60
2018-08-17T17:02:27.099Z,30.60
2018-08-17T17:04:55.859Z,30.40
2018-08-17T17:07:29.800Z,30.60
2018-08-17T17:10:01.044Z,30.50
2018-08-17T17:12:30.115Z,30.40
2018-08-17T17:15:32.938Z,30.30
2018-08-17T17:18:06.921Z,30.20
2018-08-17T17:20:43.129Z,30.10
2018-08-17T17:23:14.341Z,30.10
2018-08-17T17:25:45.637Z,30.00
2018-08-17T17:28:14.400Z,30.00
2018-08-17T17:30:47.315Z,30.00
2018-08-17T17:33:16.441Z,29.90
2018-08-17T17:35:45.327Z,29.90
2018-08-17T17:38:14.120Z,29.90
2018-08-17T17:40:43.243Z,29.80
2018-08-17T17:43:12.153Z,29.70
2018-08-17T17:45:41.306Z,29.60
2018-08-17T17:48:10.479Z,29.40
2018-08-17T17:50:41.634Z,29.30
2018-08-17T17:53:10.462Z,29.20
2018-08-17T17:55:44.582Z,29.20
2018-08-17T17:58:13.585Z,29.20
2018-08-17T18:00:51.497Z,29.20
2018-08-17T18:03:20.341Z,30.90
2018-08-17T18:05:49.018Z,29.00
2018-08-17T18:08:20.141Z,28.80
2018-08-17T18:10:49.203Z,28.60
2018-08-17T18:13:17.939Z,28.50
2018-08-17T18:15:46.765Z,28.40
2018-08-17T18:18:15.719Z,28.30
2018-08-17T18:20:44.425Z,28.80
2018-08-17T18:23:13.121Z,28.00
2018-08-17T18:25:42.224Z,27.80
2018-08-17T18:28:11.005Z,27.70
2018-08-17T18:30:40.040Z,27.70
2018-08-17T18:33:08.867Z,27.70
2018-08-17T18:35:37.749Z,27.60
2018-08-17T18:38:06.710Z,27.50
2018-08-17T18:40:35.579Z,27.40
2018-08-17T18:43:04.545Z,27.30
2018-08-17T18:45:33.407Z,27.30
2018-08-17T18:48:02.363Z,27.20
2018-08-17T18:50:33.382Z,27.10
2018-08-17T18:53:02.347Z,27.00
2018-08-17T18:55:31.500Z,27.00
2018-08-17T18:58:00.342Z,26.90
2018-08-17T19:00:29.337Z,26.10
2018-08-17T19:02:59.645Z,26.70
2018-08-17T19:05:34.654Z,26.60
2018-08-17T19:08:03.514Z,26.50
2018-08-17T19:10:32.570Z,26.40
2018-08-17T19:13:01.381Z,26.30
2018-08-17T19:15:34.878Z,26.30
2018-08-17T19:18:03.716Z,26.20
2018-08-17T19:20:32.617Z,26.20
2018-08-17T19:23:01.548Z,26.10
2018-08-17T19:25:30.935Z,26.00
2018-08-17T19:27:59.906Z,26.00
2018-08-17T19:30:33.582Z,26.00
2018-08-17T19:33:07.677Z,26.00
2018-08-17T19:35:36.571Z,25.90
2018-08-17T19:38:05.502Z,25.90
2018-08-17T19:40:34.290Z,25.90
2018-08-17T19:43:02.958Z,25.80
2018-08-17T19:45:37.620Z,25.80
2018-08-17T19:48:08.421Z,25.70
2018-08-17T19:50:37.345Z,25.70
2018-08-17T19:53:06.297Z,25.60
2018-08-17T19:55:36.333Z,25.50
2018-08-17T19:58:05.464Z,25.50
2018-08-17T20:00:34.256Z,25.40
2018-08-17T20:03:07.911Z,25.40
2018-08-17T20:05:36.968Z,25.30
2018-08-17T20:08:05.807Z,25.20
2018-08-17T20:10:41.325Z,25.10
2018-08-17T20:13:15.636Z,25.00
2018-08-17T20:15:44.718Z,24.90
2018-08-17T20:18:13.399Z,24.90
2018-08-17T20:20:42.284Z,24.90
2018-08-17T20:23:11.124Z,24.90
2018-08-17T20:25:41.771Z,24.80
2018-08-17T20:28:10.508Z,24.90
2018-08-17T20:30:41.116Z,24.90
2018-08-17T20:33:15.919Z,24.80
2018-08-17T20:35:45.563Z,24.80
2018-08-17T20:38:14.604Z,24.80
2018-08-17T20:40:43.460Z,24.70
2018-08-17T20:43:12.458Z,24.70
2018-08-17T20:45:41.306Z,24.60
2018-08-17T20:48:10.186Z,24.50
2018-08-17T20:50:39.269Z,24.40
2018-08-17T20:53:08.226Z,23.60
2018-08-17T20:55:36.931Z,24.30
2018-08-17T20:58:05.902Z,23.20
2018-08-17T21:00:34.659Z,24.40
2018-08-17T21:03:03.390Z,24.40
2018-08-17T21:05:32.136Z,24.40
2018-08-17T21:08:00.913Z,24.40
2018-08-17T21:10:29.747Z,24.40
2018-08-17T21:12:58.450Z,24.30
2018-08-17T21:15:27.377Z,24.20
2018-08-17T21:17:56.153Z,24.20
2018-08-17T21:20:24.863Z,24.30
2018-08-17T21:22:53.713Z,24.30
2018-08-17T21:25:23.308Z,24.20
2018-08-17T21:27:52.315Z,24.20
2018-08-17T21:30:20.980Z,24.10
2018-08-17T21:32:49.727Z,24.10
2018-08-17T21:35:18.490Z,24.00
2018-08-17T21:37:47.330Z,23.90
2018-08-17T21:40:21.260Z,23.70
2018-08-17T21:42:49.944Z,23.60
2018-08-17T21:45:23.681Z,23.40
2018-08-17T21:47:57.548Z,23.30
2018-08-17T21:50:26.517Z,23.30
2018-08-17T21:52:55.418Z,23.40
2018-08-17T21:55:24.177Z,22.60
2018-08-17T21:57:52.915Z,23.40
2018-08-17T22:00:36.785Z,23.50
2018-08-17T22:03:40.824Z,23.50
2018-08-17T22:06:09.541Z,23.40
2018-08-17T22:08:38.675Z,22.80
2018-08-17T22:11:07.500Z,23.20
2018-08-17T22:13:36.648Z,23.20
2018-08-17T22:16:05.568Z,23.10
2018-08-17T22:18:34.460Z,23.10
2018-08-17T22:21:03.205Z,23.10
2018-08-17T22:23:31.962Z,23.60
2018-08-17T22:26:00.974Z,23.00
2018-08-17T22:28:29.870Z,23.00
2018-08-17T22:30:58.636Z,23.00
2018-08-17T22:33:27.366Z,22.90
2018-08-17T22:35:56.162Z,22.80
2018-08-17T22:38:26.756Z,22.60
2018-08-17T22:40:55.395Z,22.60
2018-08-17T22:43:24.137Z,22.60
2018-08-17T22:45:53.634Z,22.60
2018-08-17T22:48:22.419Z,22.60
2018-08-17T22:50:51.019Z,22.50
2018-08-17T22:53:19.748Z,22.50
2018-08-17T22:55:48.614Z,22.40
2018-08-17T22:58:17.387Z,22.30
2018-08-17T23:00:46.279Z,22.30
2018-08-17T23:03:15.082Z,22.30
2018-08-17T23:05:43.967Z,22.30
2018-08-17T23:08:12.708Z,22.30
2018-08-17T23:10:41.532Z,22.30
2018-08-17T23:13:10.236Z,22.30
2018-08-17T23:15:39.082Z,22.20
2018-08-17T23:18:07.956Z,22.20
2018-08-17T23:20:37.773Z,22.20
2018-08-17T23:23:07.358Z,22.30
2018-08-17T23:25:38.196Z,22.20
2018-08-17T23:28:07.079Z,22.20
2018-08-17T23:30:35.826Z,22.10
2018-08-17T23:33:05.862Z,20.50
2018-08-17T23:35:34.651Z,22.00
2018-08-17T23:38:03.670Z,21.90
2018-08-17T23:40:32.266Z,21.90
2018-08-17T23:43:01.233Z,21.80
2018-08-17T23:45:30.031Z,21.80
2018-08-17T23:47:58.797Z,21.80
2018-08-17T23:50:27.549Z,21.70
2018-08-17T23:52:56.596Z,21.70
2018-08-17T23:55:25.368Z,21.70
2018-08-17T23:57:54.211Z,21.70
